createdAt,value
2022-08-24T00:02:06.402Z,100.00
2022-08-24T00:04:35.960Z,100.00
2022-08-24T00:07:05.978Z,100.00
2022-08-24T00:09:43.105Z,100.00
2022-08-24T00:12:20.905Z,100.00
2022-08-24T00:14:49.986Z,100.00
2022-08-24T00:17:20.601Z,100.00
2022-08-24T00:19:49.663Z,100.00
2022-08-24T00:22:18.913Z,100.00
2022-08-24T00:24:47.901Z,100.00
2022-08-24T00:27:16.807Z,100.00
2022-08-24T00:29:47.114Z,100.00
2022-08-24T00:32:16.084Z,100.00
2022-08-24T00:34:58.743Z,100.00
2022-08-24T00:37:30.004Z,100.00
2022-08-24T00:39:59.675Z,100.00
2022-08-24T00:42:28.727Z,100.00
2022-08-24T00:44:59.823Z,100.00
2022-08-24T00:47:41.052Z,100.00
2022-08-24T00:50:23.293Z,100.00
2022-08-24T00:52:58.048Z,100.00
2022-08-24T00:55:34.066Z,100.00
2022-08-24T00:58:17.052Z,100.00
2022-08-24T01:00:56.378Z,100.00
2022-08-24T01:03:26.672Z,100.00
2022-08-24T01:05:56.394Z,100.00
2022-08-24T01:08:26.268Z,100.00
2022-08-24T01:11:02.195Z,100.00
2022-08-24T01:13:34.920Z,100.00
2022-08-24T01:16:09.465Z,100.00
2022-08-24T01:18:52.246Z,100.00
2022-08-24T01:21:33.160Z,100.00
2022-08-24T01:24:11.283Z,100.00
2022-08-24T01:26:47.149Z,100.00
2022-08-24T01:29:23.444Z,100.00
2022-08-24T01:31:53.849Z,100.00
2022-08-24T01:34:22.865Z,100.00
2022-08-24T01:36:56.230Z,100.00
2022-08-24T01:39:31.739Z,100.00
2022-08-24T01:42:02.368Z,100.00
2022-08-24T01:44:35.274Z,100.00
2022-08-24T01:47:09.823Z,100.00
2022-08-24T01:49:44.212Z,100.00
2022-08-24T01:52:17.327Z,100.00
2022-08-24T01:54:47.672Z,100.00
2022-08-24T01:57:19.607Z,100.00
2022-08-24T01:59:48.670Z,100.00
2022-08-24T02:02:23.374Z,100.00
2022-08-24T02:04:52.456Z,100.00
2022-08-24T02:07:21.498Z,100.00
2022-08-24T02:09:53.322Z,100.00
2022-08-24T02:12:22.735Z,100.00
2022-08-24T02:14:52.002Z,100.00
2022-08-24T02:17:22.828Z,100.00
2022-08-24T02:19:58.990Z,100.00
2022-08-24T02:22:28.372Z,100.00
2022-08-24T02:24:58.769Z,100.00
2022-08-24T02:27:27.856Z,100.00
2022-08-24T02:29:57.678Z,100.00
2022-08-24T02:32:26.750Z,100.00
2022-08-24T02:34:55.669Z,100.00
2022-08-24T02:37:24.615Z,100.00
2022-08-24T02:39:53.751Z,100.00
2022-08-24T02:42:26.190Z,100.00
2022-08-24T02:44:55.683Z,100.00
2022-08-24T02:47:38.028Z,100.00
2022-08-24T02:50:09.438Z,100.00
2022-08-24T02:52:39.516Z,100.00
2022-08-24T02:55:15.103Z,100.00
2022-08-24T02:57:45.660Z,100.00
2022-08-24T03:00:19.371Z,100.00
2022-08-24T03:02:55.520Z,100.00
2022-08-24T03:05:26.073Z,100.00
2022-08-24T03:07:55.709Z,100.00
2022-08-24T03:10:25.013Z,100.00
2022-08-24T03:12:58.863Z,100.00
2022-08-24T03:15:28.280Z,100.00
2022-08-24T03:17:58.432Z,100.00
2022-08-24T03:20:28.624Z,100.00
2022-08-24T03:23:00.679Z,100.00
2022-08-24T03:25:29.839Z,100.00
2022-08-24T03:28:00.476Z,100.00
2022-08-24T03:30:30.498Z,100.00
2022-08-24T03:33:01.254Z,100.00
2022-08-24T03:35:30.431Z,100.00
2022-08-24T03:38:00.844Z,100.00
2022-08-24T03:40:30.217Z,100.00
2022-08-24T03:43:01.177Z,100.00
2022-08-24T03:45:31.308Z,100.00
2022-08-24T03:48:00.682Z,100.00
2022-08-24T03:50:29.848Z,100.00
2022-08-24T03:52:59.128Z,100.00
2022-08-24T03:55:30.937Z,100.00
2022-08-24T03:58:01.844Z,100.00
2022-08-24T04:00:30.922Z,100.00
2022-08-24T04:03:01.203Z,100.00
2022-08-24T04:05:34.855Z,100.00
2022-08-24T04:08:06.860Z,100.00
2022-08-24T04:10:39.447Z,100.00
2022-08-24T04:13:12.776Z,100.00
2022-08-24T04:15:44.518Z,100.00
2022-08-24T04:18:13.836Z,100.00
2022-08-24T04:20:47.717Z,100.00
2022-08-24T04:23:21.718Z,100.00
2022-08-24T04:26:05.576Z,100.00
2022-08-24T04:28:36.013Z,100.00
2022-08-24T04:31:07.767Z,100.00
2022-08-24T04:33:43.937Z,100.00
2022-08-24T04:36:14.638Z,100.00
2022-08-24T04:38:46.957Z,100.00
2022-08-24T04:41:42.247Z,100.00
2022-08-24T04:44:14.490Z,100.00
2022-08-24T04:46:44.071Z,100.00
2022-08-24T04:49:13.444Z,100.00
2022-08-24T04:51:44.927Z,100.00
2022-08-24T04:54:14.532Z,100.00
2022-08-24T04:56:43.890Z,100.00
2022-08-24T04:59:14.954Z,100.00
2022-08-24T05:01:45.224Z,100.00
2022-08-24T05:04:14.947Z,100.00
2022-08-24T05:06:45.818Z,100.00
2022-08-24T05:09:17.545Z,100.00
2022-08-24T05:11:49.717Z,100.00
2022-08-24T05:14:28.819Z,100.00
2022-08-24T05:16:59.274Z,100.00
2022-08-24T05:19:29.288Z,100.00
2022-08-24T05:21:58.936Z,100.00
2022-08-24T05:24:28.770Z,100.00
2022-08-24T05:27:00.622Z,100.00
2022-08-24T05:29:39.073Z,100.00
2022-08-24T05:32:08.506Z,100.00
2022-08-24T05:34:38.245Z,100.00
2022-08-24T05:37:08.822Z,100.00
2022-08-24T05:39:53.063Z,100.00
2022-08-24T05:42:27.826Z,100.00
2022-08-24T05:44:58.480Z,100.00
2022-08-24T05:47:27.932Z,100.00
2022-08-24T05:50:01.439Z,100.00
2022-08-24T05:52:31.316Z,100.00
2022-08-24T05:55:01.370Z,100.00
2022-08-24T05:57:35.645Z,100.00
2022-08-24T06:00:15.697Z,100.00
2022-08-24T06:02:53.066Z,100.00
2022-08-24T06:05:23.720Z,100.00
2022-08-24T06:07:53.035Z,100.00
2022-08-24T06:10:37.997Z,100.00
2022-08-24T06:13:08.733Z,100.00
2022-08-24T06:15:41.114Z,100.00
2022-08-24T06:18:10.875Z,100.00
2022-08-24T06:20:43.888Z,100.00
2022-08-24T06:23:15.560Z,100.00
2022-08-24T06:26:13.380Z,100.00
2022-08-24T06:28:50.120Z,100.00
2022-08-24T06:31:22.164Z,100.00
2022-08-24T06:33:55.288Z,100.00
2022-08-24T06:36:28.991Z,100.00
2022-08-24T06:39:01.975Z,100.00
2022-08-24T06:41:31.623Z,100.00
2022-08-24T06:44:02.015Z,100.00
2022-08-24T06:46:47.488Z,100.00
2022-08-24T06:49:16.650Z,100.00
2022-08-24T06:51:50.598Z,100.00
2022-08-24T06:54:26.582Z,100.00
2022-08-24T06:57:00.779Z,100.00
2022-08-24T06:59:32.474Z,100.00
2022-08-24T07:02:03.004Z,100.00
2022-08-24T07:04:32.711Z,100.00
2022-08-24T07:07:20.454Z,100.00
2022-08-24T07:09:49.719Z,100.00
2022-08-24T07:12:18.307Z,100.00
2022-08-24T07:14:47.301Z,100.00
2022-08-24T07:17:18.116Z,100.00
2022-08-24T07:19:48.466Z,100.00
2022-08-24T07:22:31.296Z,100.00
2022-08-24T07:25:00.348Z,100.00
2022-08-24T07:27:29.871Z,100.00
2022-08-24T07:30:23.250Z,100.00
2022-08-24T07:32:49.493Z,100.00
2022-08-24T07:35:18.775Z,100.00
2022-08-24T07:37:47.804Z,100.00
2022-08-24T07:40:18.828Z,100.00
2022-08-24T07:42:52.720Z,100.00
2022-08-24T07:45:23.640Z,100.00
2022-08-24T07:47:56.452Z,100.00
2022-08-24T07:50:47.701Z,100.00
2022-08-24T07:53:20.831Z,100.00
2022-08-24T07:55:57.728Z,100.00
2022-08-24T07:58:27.656Z,100.00
2022-08-24T08:00:59.188Z,100.00
2022-08-24T08:03:31.988Z,100.00
2022-08-24T08:06:04.023Z,100.00
2022-08-24T08:08:44.666Z,98.43
2022-08-24T08:18:13.717Z,98.70
2022-08-24T08:23:48.617Z,96.45
2022-08-24T08:29:34.782Z,93.20
2022-08-24T08:32:04.871Z,93.81
2022-08-24T08:34:34.706Z,92.95
2022-08-24T08:40:15.401Z,90.98
2022-08-24T08:43:23.510Z,90.50
2022-08-24T08:46:18.625Z,93.60
2022-08-24T08:53:34.289Z,91.14
2022-08-24T08:56:16.110Z,90.12
2022-08-24T08:59:04.647Z,90.95
2022-08-24T09:06:24.146Z,89.75
2022-08-24T09:13:11.742Z,86.97
2022-08-24T09:17:19.280Z,88.15
2022-08-24T09:27:55.996Z,82.30
2022-08-24T09:32:28.690Z,83.88
2022-08-24T09:39:08.803Z,84.38
2022-08-24T09:54:23.950Z,83.22
2022-08-24T10:01:33.429Z,84.05
2022-08-24T10:04:19.306Z,85.28
2022-08-24T10:07:16.046Z,84.43
2022-08-24T13:52:40.732Z,68.64
2022-08-24T14:04:19.412Z,71.01
2022-08-24T14:11:25.374Z,70.39
2022-08-24T14:43:31.293Z,63.11
2022-08-24T14:46:59.452Z,71.24
2022-08-24T14:49:39.209Z,69.75
2022-08-24T14:52:44.612Z,70.08
2022-08-24T14:55:30.801Z,71.59
2022-08-24T14:58:30.465Z,71.55
2022-08-24T15:01:40.553Z,71.77
2022-08-24T15:04:37.297Z,71.80
2022-08-24T15:07:30.653Z,71.06
2022-08-24T15:10:14.913Z,71.18
2022-08-24T15:12:52.493Z,71.48
2022-08-24T15:15:34.136Z,71.44
2022-08-24T15:18:14.544Z,72.07
2022-08-24T15:21:06.426Z,72.40
2022-08-24T15:24:01.370Z,73.08
2022-08-24T15:26:46.689Z,74.40
2022-08-24T15:29:22.516Z,76.46
2022-08-24T15:32:04.061Z,76.28
2022-08-24T15:34:45.864Z,74.69
2022-08-24T15:37:16.999Z,75.32
2022-08-24T15:39:45.857Z,75.84
2022-08-24T15:42:30.180Z,75.98
2022-08-24T15:45:05.079Z,76.12
2022-08-24T15:47:38.243Z,75.91
2022-08-24T15:50:22.571Z,76.01
2022-08-24T15:52:56.599Z,75.64
2022-08-24T15:55:36.815Z,74.78
2022-08-24T15:58:36.382Z,74.93
2022-08-24T16:01:40.104Z,74.29
2022-08-24T16:04:15.781Z,74.14
2022-08-24T16:06:48.479Z,74.98
2022-08-24T16:09:36.571Z,75.32
2022-08-24T16:12:12.698Z,75.12
2022-08-24T16:14:49.029Z,75.37
2022-08-24T16:17:36.437Z,75.85
2022-08-24T16:20:13.200Z,75.55
2022-08-24T16:23:00.804Z,75.55
2022-08-24T16:25:34.723Z,75.23
2022-08-24T16:28:11.531Z,75.82
2022-08-24T16:30:53.943Z,76.45
2022-08-24T16:33:45.657Z,75.91
2022-08-24T16:36:20.555Z,76.20
2022-08-24T16:38:52.904Z,76.05
2022-08-24T16:41:25.669Z,76.24
2022-08-24T16:43:54.932Z,76.56
2022-08-24T16:46:25.678Z,76.18
2022-08-24T16:48:55.521Z,76.18
2022-08-24T16:51:25.524Z,75.98
2022-08-24T16:53:56.231Z,76.52
2022-08-24T16:56:25.684Z,77.00
2022-08-24T16:58:55.175Z,77.73
2022-08-24T17:01:27.609Z,77.76
2022-08-24T17:04:06.524Z,77.30
2022-08-24T17:06:35.812Z,77.62
2022-08-24T17:09:06.282Z,77.55
2022-08-24T17:11:38.016Z,77.79
2022-08-24T17:14:07.109Z,77.99
2022-08-24T17:16:36.645Z,78.26
2022-08-24T17:19:12.849Z,78.48
2022-08-24T17:21:43.582Z,79.88
2022-08-24T17:24:14.780Z,80.72
2022-08-24T17:26:50.915Z,81.82
2022-08-24T17:29:20.891Z,82.54
2022-08-24T17:31:50.931Z,83.55
2022-08-24T17:34:21.815Z,84.35
2022-08-24T17:36:54.309Z,85.23
2022-08-24T17:39:25.681Z,85.46
2022-08-24T17:41:55.952Z,86.78
2022-08-24T17:44:28.772Z,87.13
2022-08-24T17:47:05.080Z,88.38
2022-08-24T17:49:35.051Z,88.50
2022-08-24T17:52:04.455Z,89.83
2022-08-24T17:54:34.856Z,91.01
2022-08-24T17:57:04.070Z,91.68
2022-08-24T17:59:35.524Z,92.72
2022-08-24T18:02:07.403Z,93.66
2022-08-24T18:04:37.656Z,94.71
2022-08-24T18:07:12.047Z,95.24
2022-08-24T18:09:48.324Z,95.97
2022-08-24T18:12:20.000Z,96.90
2022-08-24T18:14:52.656Z,98.12
2022-08-24T18:17:34.631Z,99.06
2022-08-24T18:20:12.165Z,99.54
2022-08-24T18:22:45.047Z,99.48
2022-08-24T18:25:26.093Z,100.00
2022-08-24T18:27:58.985Z,100.00
2022-08-24T18:30:31.022Z,100.00
2022-08-24T18:33:01.893Z,100.00
2022-08-24T18:35:32.821Z,100.00
2022-08-24T18:38:02.196Z,100.00
2022-08-24T18:40:33.043Z,100.00
2022-08-24T18:43:05.009Z,100.00
2022-08-24T18:45:35.985Z,100.00
2022-08-24T18:48:05.728Z,100.00
2022-08-24T18:50:36.811Z,100.00
2022-08-24T18:53:08.793Z,100.00
2022-08-24T18:59:01.160Z,100.00
2022-08-24T19:01:53.720Z,100.00
2022-08-24T19:04:22.934Z,100.00
2022-08-24T19:06:59.679Z,100.00
2022-08-24T19:09:34.528Z,100.00
2022-08-24T19:12:08.010Z,100.00
2022-08-24T19:14:48.296Z,100.00
2022-08-24T19:17:17.846Z,100.00
2022-08-24T19:19:46.940Z,100.00
2022-08-24T19:22:17.385Z,100.00
2022-08-24T19:24:47.282Z,100.00
2022-08-24T19:27:20.253Z,100.00
2022-08-24T19:29:56.606Z,100.00
2022-08-24T19:32:31.793Z,100.00
2022-08-24T19:35:01.251Z,100.00
2022-08-24T19:37:30.284Z,100.00
2022-08-24T19:40:00.547Z,100.00
2022-08-24T19:42:32.215Z,100.00
2022-08-24T19:45:19.698Z,100.00
2022-08-24T19:47:48.894Z,100.00
2022-08-24T19:50:21.314Z,100.00
2022-08-24T19:52:50.667Z,100.00
2022-08-24T19:55:19.563Z,100.00
2022-08-24T19:57:55.899Z,100.00
2022-08-24T20:00:34.247Z,100.00
2022-08-24T20:03:06.438Z,100.00
2022-08-24T20:05:38.485Z,100.00
2022-08-24T20:08:07.404Z,100.00
2022-08-24T20:10:36.459Z,100.00
2022-08-24T20:13:07.259Z,100.00
2022-08-24T20:15:36.282Z,100.00
2022-08-24T20:18:05.742Z,100.00
2022-08-24T20:20:34.844Z,100.00
2022-08-24T20:23:06.428Z,100.00
2022-08-24T20:25:37.205Z,100.00
2022-08-24T20:30:57.557Z,100.00
2022-08-24T20:33:28.112Z,100.00
2022-08-24T20:35:57.558Z,100.00
2022-08-24T20:38:29.329Z,100.00
2022-08-24T20:41:01.788Z,100.00
2022-08-24T20:43:31.885Z,100.00
2022-08-24T20:46:01.483Z,100.00
2022-08-24T20:48:33.865Z,100.00
2022-08-24T20:51:03.244Z,100.00
2022-08-24T20:53:32.252Z,100.00
2022-08-24T20:56:10.150Z,100.00
2022-08-24T20:58:41.607Z,100.00
2022-08-24T21:01:10.796Z,100.00
2022-08-24T21:03:39.951Z,100.00
2022-08-24T21:06:20.888Z,100.00
2022-08-24T21:08:53.367Z,100.00
2022-08-24T21:11:22.624Z,100.00
2022-08-24T21:13:52.909Z,100.00
2022-08-24T21:16:22.144Z,100.00
2022-08-24T21:18:51.298Z,100.00
2022-08-24T21:21:20.509Z,100.00
2022-08-24T21:23:49.514Z,100.00
2022-08-24T21:26:24.772Z,100.00
2022-08-24T21:28:58.068Z,100.00
2022-08-24T21:31:28.784Z,100.00
2022-08-24T21:34:15.313Z,100.00
2022-08-24T21:36:44.405Z,100.00
2022-08-24T21:39:13.241Z,100.00
2022-08-24T21:41:42.361Z,100.00
2022-08-24T21:44:15.032Z,100.00
2022-08-24T21:46:44.437Z,100.00
2022-08-24T21:49:13.418Z,100.00
2022-08-24T21:51:45.431Z,100.00
2022-08-24T21:54:14.649Z,100.00
2022-08-24T21:56:43.837Z,100.00
2022-08-24T21:59:14.287Z,100.00
2022-08-24T22:01:43.785Z,100.00
2022-08-24T22:04:13.483Z,100.00
2022-08-24T22:06:42.517Z,100.00
2022-08-24T22:09:11.600Z,100.00
2022-08-24T22:11:40.693Z,100.00
2022-08-24T22:14:11.694Z,100.00
2022-08-24T22:16:42.495Z,100.00
2022-08-24T22:19:11.910Z,100.00
2022-08-24T22:21:47.725Z,100.00
2022-08-24T22:24:17.227Z,100.00
2022-08-24T22:26:46.424Z,100.00
2022-08-24T22:29:15.902Z,100.00
2022-08-24T22:31:46.729Z,100.00
2022-08-24T22:34:20.967Z,100.00
2022-08-24T22:36:51.439Z,100.00
2022-08-24T22:39:22.763Z,100.00
2022-08-24T22:41:57.491Z,100.00
2022-08-24T22:44:27.887Z,100.00
2022-08-24T22:47:01.902Z,100.00
2022-08-24T22:49:37.078Z,100.00
2022-08-24T22:52:07.372Z,100.00
2022-08-24T22:54:37.042Z,100.00
2022-08-24T22:57:06.229Z,100.00
2022-08-24T22:59:41.666Z,100.00
2022-08-24T23:02:14.930Z,100.00
2022-08-24T23:04:49.517Z,100.00
2022-08-24T23:07:21.761Z,100.00
2022-08-24T23:09:51.240Z,100.00
2022-08-24T23:12:24.713Z,100.00
2022-08-24T23:14:54.513Z,100.00
2022-08-24T23:17:24.920Z,100.00
2022-08-24T23:20:05.200Z,100.00
2022-08-24T23:22:41.211Z,100.00
2022-08-24T23:25:13.866Z,100.00
2022-08-24T23:27:46.623Z,100.00
2022-08-24T23:30:18.444Z,100.00
2022-08-24T23:32:49.259Z,100.00
2022-08-24T23:35:18.384Z,100.00
2022-08-24T23:37:47.924Z,100.00
2022-08-24T23:40:17.401Z,100.00
2022-08-24T23:42:46.538Z,100.00
2022-08-24T23:45:15.955Z,100.00
2022-08-24T23:47:45.064Z,100.00
2022-08-24T23:50:15.491Z,100.00
2022-08-24T23:52:44.218Z,100.00
2022-08-24T23:55:21.313Z,100.00
2022-08-24T23:57:52.397Z,100.00
